createdAt,value
2023-03-08T00:00:30.386Z,7.27
2023-03-08T00:02:58.059Z,6.90
2023-03-08T00:05:27.178Z,6.80
2023-03-08T00:07:55.002Z,7.03
2023-03-08T00:10:23.202Z,7.27
2023-03-08T00:12:50.891Z,6.97
2023-03-08T00:15:19.210Z,7.57
2023-03-08T00:17:46.936Z,6.63
2023-03-08T00:20:15.694Z,6.33
2023-03-08T00:22:44.815Z,6.80
2023-03-08T00:25:16.309Z,7.07
2023-03-08T00:27:44.019Z,6.10
2023-03-08T00:30:13.252Z,6.80
2023-03-08T00:32:41.015Z,7.20
2023-03-08T00:35:09.509Z,7.10
2023-03-08T00:37:37.188Z,6.50
2023-03-08T00:40:10.463Z,7.10
2023-03-08T00:42:38.204Z,6.97
2023-03-08T00:45:06.555Z,6.97
2023-03-08T00:47:35.450Z,6.53
2023-03-08T00:50:03.205Z,6.50
2023-03-08T00:52:30.850Z,6.57
2023-03-08T00:54:58.497Z,7.27
2023-03-08T00:57:27.589Z,7.20
2023-03-08T00:59:55.380Z,7.00
2023-03-08T01:02:23.060Z,7.23
2023-03-08T01:04:50.748Z,6.23
2023-03-08T01:07:19.372Z,6.37
2023-03-08T01:09:47.273Z,6.87
2023-03-08T01:12:15.025Z,6.67
2023-03-08T01:14:44.017Z,7.13
2023-03-08T01:17:11.652Z,7.27
2023-03-08T01:19:39.536Z,6.93
2023-03-08T01:22:07.205Z,6.70
2023-03-08T01:24:34.802Z,6.43
2023-03-08T01:27:02.543Z,7.13
2023-03-08T01:29:30.192Z,6.50
2023-03-08T01:31:59.243Z,6.47
2023-03-08T01:34:26.979Z,7.17
2023-03-08T01:36:54.787Z,7.00
2023-03-08T01:39:22.510Z,6.43
2023-03-08T01:41:50.524Z,7.77
2023-03-08T01:44:19.997Z,6.80
2023-03-08T01:46:48.163Z,6.53
2023-03-08T01:49:20.810Z,6.50
2023-03-08T01:51:53.031Z,6.53
2023-03-08T01:54:24.796Z,6.40
2023-03-08T01:56:55.747Z,6.70
2023-03-08T01:59:24.836Z,6.97
2023-03-08T02:01:52.767Z,6.40
2023-03-08T02:04:21.808Z,7.00
2023-03-08T02:06:49.615Z,7.33
2023-03-08T02:09:17.494Z,7.20
2023-03-08T02:11:45.544Z,6.17
2023-03-08T02:14:13.200Z,6.70
2023-03-08T02:16:40.881Z,6.90
2023-03-08T02:19:13.831Z,7.03
2023-03-08T02:21:43.130Z,6.43
2023-03-08T02:24:21.250Z,6.63
2023-03-08T02:26:50.486Z,7.20
2023-03-08T02:29:18.240Z,6.80
2023-03-08T02:31:45.998Z,7.37
2023-03-08T02:34:13.648Z,6.63
2023-03-08T02:36:41.362Z,6.67
2023-03-08T02:39:09.082Z,7.20
2023-03-08T02:41:38.186Z,6.30
2023-03-08T02:44:05.980Z,7.17
2023-03-08T02:46:34.145Z,6.87
2023-03-08T02:49:01.750Z,6.47
2023-03-08T02:51:29.391Z,6.80
2023-03-08T02:53:57.125Z,6.37
2023-03-08T02:56:24.789Z,6.83
2023-03-08T02:58:54.211Z,6.50
2023-03-08T03:01:22.067Z,7.07
2023-03-08T03:03:50.155Z,6.97
2023-03-08T03:06:19.692Z,6.47
2023-03-08T03:08:48.099Z,7.60
2023-03-08T03:11:17.117Z,6.93
2023-03-08T03:13:45.524Z,6.80
2023-03-08T03:16:16.744Z,6.20
2023-03-08T03:18:44.692Z,7.03
2023-03-08T03:21:14.809Z,6.53
2023-03-08T03:23:43.036Z,6.63
2023-03-08T03:26:13.461Z,7.77
2023-03-08T03:28:41.099Z,6.70
2023-03-08T03:31:10.100Z,6.63
2023-03-08T03:33:39.767Z,6.40
2023-03-08T03:36:09.652Z,6.90
2023-03-08T03:38:37.711Z,6.50
2023-03-08T03:41:08.122Z,7.40
2023-03-08T03:43:36.106Z,6.37
2023-03-08T03:46:06.862Z,6.53
2023-03-08T03:48:35.638Z,6.90
2023-03-08T03:51:06.713Z,6.97
2023-03-08T03:53:36.393Z,7.03
2023-03-08T03:56:05.972Z,6.63
2023-03-08T03:58:33.773Z,6.93
2023-03-08T04:01:01.749Z,6.47
2023-03-08T04:03:29.448Z,7.20
2023-03-08T04:06:08.594Z,7.07
2023-03-08T04:08:41.923Z,6.70
2023-03-08T04:11:10.342Z,6.60
2023-03-08T04:13:38.204Z,6.50
2023-03-08T04:16:12.955Z,6.60
2023-03-08T04:18:40.787Z,6.80
2023-03-08T04:21:09.984Z,6.67
2023-03-08T04:23:38.331Z,7.13
2023-03-08T04:26:07.134Z,7.03
2023-03-08T04:28:35.907Z,6.80
2023-03-08T04:31:12.941Z,7.20
2023-03-08T04:33:40.774Z,7.40
2023-03-08T04:36:10.667Z,7.07
2023-03-08T04:38:38.393Z,6.70
2023-03-08T04:41:11.767Z,6.80
2023-03-08T04:43:40.280Z,6.60
2023-03-08T04:46:09.041Z,8.63
2023-03-08T04:48:36.822Z,7.10
2023-03-08T04:51:07.428Z,7.13
2023-03-08T04:53:39.062Z,6.67
2023-03-08T04:56:07.562Z,7.00
2023-03-08T04:58:36.660Z,6.90
2023-03-08T05:01:10.708Z,7.43
2023-03-08T05:03:38.313Z,7.20
2023-03-08T05:06:06.668Z,7.87
2023-03-08T05:08:35.990Z,7.10
2023-03-08T05:11:04.819Z,7.53
2023-03-08T05:13:34.940Z,7.23
2023-03-08T05:16:03.352Z,7.63
2023-03-08T05:18:31.177Z,7.33
2023-03-08T05:21:00.851Z,6.97
2023-03-08T05:23:30.209Z,7.50
2023-03-08T05:26:00.905Z,8.33
2023-03-08T05:28:30.937Z,8.13
2023-03-08T05:31:02.495Z,7.80
2023-03-08T05:33:30.566Z,8.27
2023-03-08T05:35:58.563Z,8.27
2023-03-08T05:38:26.998Z,7.53
2023-03-08T05:40:54.989Z,7.80
2023-03-08T05:43:25.192Z,7.47
2023-03-08T05:45:57.309Z,7.57
2023-03-08T05:48:25.691Z,7.53
2023-03-08T05:50:53.596Z,8.10
2023-03-08T05:53:21.463Z,7.97
2023-03-08T05:55:49.389Z,8.20
2023-03-08T05:58:17.312Z,8.47
2023-03-08T06:00:46.459Z,8.60
2023-03-08T06:03:14.095Z,8.90
2023-03-08T06:05:41.762Z,8.30
2023-03-08T06:08:09.405Z,9.13
2023-03-08T06:10:37.072Z,8.67
2023-03-08T06:13:04.768Z,8.80
2023-03-08T06:15:32.405Z,8.53
2023-03-08T06:18:01.369Z,9.40
2023-03-08T06:20:29.074Z,9.13
2023-03-08T06:22:56.805Z,9.33
2023-03-08T06:25:24.433Z,8.33
2023-03-08T06:27:52.094Z,8.10
2023-03-08T06:30:20.012Z,9.20
2023-03-08T06:32:49.299Z,8.17
2023-03-08T06:35:18.362Z,9.87
2023-03-08T06:37:46.039Z,8.90
2023-03-08T06:40:14.347Z,8.60
2023-03-08T06:42:42.113Z,8.97
2023-03-08T06:45:11.525Z,9.57
2023-03-08T06:47:39.196Z,9.67
2023-03-08T06:50:07.542Z,10.20
2023-03-08T06:52:37.882Z,10.23
2023-03-08T06:55:06.116Z,9.37
2023-03-08T06:57:33.787Z,10.53
2023-03-08T07:00:01.636Z,9.70
2023-03-08T07:02:29.385Z,9.97
2023-03-08T07:04:57.101Z,9.93
2023-03-08T07:07:24.795Z,10.27
2023-03-08T07:09:53.785Z,10.27
2023-03-08T07:12:21.514Z,10.90
2023-03-08T07:14:49.259Z,10.73
2023-03-08T07:17:16.915Z,9.70
2023-03-08T07:19:44.634Z,10.10
2023-03-08T07:22:12.983Z,9.67
2023-03-08T07:24:40.751Z,9.33
2023-03-08T07:27:09.959Z,9.07
2023-03-08T07:29:37.656Z,9.20
2023-03-08T07:32:05.902Z,8.77
2023-03-08T07:34:33.584Z,8.53
2023-03-08T07:37:01.249Z,8.23
2023-03-08T07:39:28.906Z,8.60
2023-03-08T07:41:56.557Z,9.07
2023-03-08T07:44:25.670Z,7.40
2023-03-08T07:46:53.241Z,8.27
2023-03-08T07:49:20.925Z,8.20
2023-03-08T07:51:51.345Z,8.17
2023-03-08T07:54:20.963Z,8.50
2023-03-08T07:56:49.388Z,8.23
2023-03-08T07:59:17.051Z,8.47
2023-03-08T08:01:46.062Z,8.33
2023-03-08T08:04:14.245Z,8.90
2023-03-08T08:06:42.502Z,9.17
2023-03-08T08:09:13.258Z,9.47
2023-03-08T08:11:40.925Z,8.33
2023-03-08T08:14:09.168Z,9.20
2023-03-08T08:16:36.938Z,9.23
2023-03-08T08:19:06.271Z,8.90
2023-03-08T08:21:33.979Z,8.87
2023-03-08T08:24:02.054Z,8.87
2023-03-08T08:26:29.682Z,10.00
2023-03-08T08:28:57.534Z,9.23
2023-03-08T08:31:28.919Z,10.47
2023-03-08T08:33:56.647Z,9.37
2023-03-08T08:36:26.391Z,9.80
2023-03-08T08:38:54.612Z,9.60
2023-03-08T08:41:24.122Z,10.63
2023-03-08T08:43:52.340Z,10.77
2023-03-08T08:46:20.073Z,9.77
2023-03-08T08:48:47.658Z,10.10
2023-03-08T08:51:15.817Z,10.50
2023-03-08T08:53:45.115Z,9.93
2023-03-08T08:56:25.572Z,10.07
2023-03-08T08:58:54.981Z,10.30
2023-03-08T09:01:24.409Z,10.77
2023-03-08T09:03:53.034Z,10.83
2023-03-08T09:06:22.807Z,11.20
2023-03-08T09:08:52.936Z,11.03
2023-03-08T09:11:20.685Z,12.40
2023-03-08T09:13:48.954Z,12.23
2023-03-08T09:16:19.654Z,13.57
2023-03-08T09:18:47.343Z,12.90
2023-03-08T09:21:15.333Z,13.73
2023-03-08T09:23:43.274Z,14.63
2023-03-08T09:26:13.134Z,14.40
2023-03-08T09:28:40.990Z,14.60
2023-03-08T09:31:13.043Z,14.23
2023-03-08T09:33:41.543Z,14.67
2023-03-08T09:36:09.708Z,13.93
2023-03-08T09:38:37.616Z,13.20
2023-03-08T09:41:21.667Z,12.17
2023-03-08T09:44:04.939Z,12.00
2023-03-08T09:46:41.933Z,13.30
2023-03-08T09:49:16.342Z,12.63
2023-03-08T09:51:49.970Z,12.37
2023-03-08T09:54:22.843Z,12.13
2023-03-08T09:56:53.302Z,12.53
2023-03-08T09:59:26.740Z,11.47
2023-03-08T10:02:01.475Z,12.43
2023-03-08T10:04:46.948Z,12.33
2023-03-08T10:07:23.352Z,11.67
2023-03-08T10:10:03.495Z,10.83
2023-03-08T10:12:44.051Z,10.70
2023-03-08T10:15:16.531Z,9.80
2023-03-08T10:17:49.101Z,10.23
2023-03-08T10:20:21.072Z,10.83
2023-03-08T10:22:57.177Z,10.17
2023-03-08T10:25:27.089Z,9.83
2023-03-08T10:27:57.758Z,10.23
2023-03-08T10:30:27.891Z,9.90
2023-03-08T10:33:00.690Z,9.73
2023-03-08T10:35:34.667Z,11.40
2023-03-08T10:38:02.486Z,10.13
2023-03-08T10:40:30.260Z,10.43
2023-03-08T10:43:05.412Z,10.53
2023-03-08T10:45:33.857Z,10.27
2023-03-08T10:48:03.547Z,10.70
2023-03-08T10:50:35.469Z,10.20
2023-03-08T10:53:11.083Z,10.10
2023-03-08T10:55:44.639Z,10.07
2023-03-08T10:58:29.627Z,10.90
2023-03-08T11:00:59.212Z,10.13
2023-03-08T11:03:28.289Z,10.73
2023-03-08T11:05:58.767Z,12.10
2023-03-08T11:08:29.505Z,10.87
2023-03-08T11:11:11.598Z,11.13
2023-03-08T11:13:42.753Z,10.90
2023-03-08T11:16:28.954Z,12.17
2023-03-08T11:19:03.125Z,11.13
2023-03-08T11:21:43.636Z,10.23
2023-03-08T11:24:22.719Z,10.67
2023-03-08T11:27:04.211Z,10.93
2023-03-08T11:29:45.771Z,11.33
2023-03-08T11:32:32.034Z,11.80
2023-03-08T11:35:22.314Z,11.67
2023-03-08T11:37:57.112Z,11.87
2023-03-08T11:40:28.234Z,11.33
2023-03-08T11:43:10.672Z,11.60
2023-03-08T11:45:50.550Z,11.90
2023-03-08T11:48:52.927Z,11.93
2023-03-08T11:51:26.426Z,11.70
2023-03-08T11:54:03.948Z,11.27
2023-03-08T11:56:41.826Z,11.10
2023-03-08T11:59:20.855Z,12.03
2023-03-08T12:01:55.672Z,12.20
2023-03-08T12:04:31.763Z,11.00
2023-03-08T12:07:03.514Z,12.03
2023-03-08T12:09:37.183Z,11.90
2023-03-08T12:12:12.232Z,12.37
2023-03-08T12:14:52.887Z,11.63
2023-03-08T12:17:27.105Z,12.30
2023-03-08T12:19:55.135Z,12.27
2023-03-08T12:22:36.361Z,12.77
2023-03-08T12:25:15.064Z,11.03
2023-03-08T12:27:48.938Z,10.33
2023-03-08T12:30:29.226Z,10.50
2023-03-08T12:33:00.345Z,11.07
2023-03-08T12:35:32.090Z,10.70
2023-03-08T12:38:02.020Z,10.57
2023-03-08T12:40:39.814Z,11.27
2023-03-08T12:43:12.459Z,10.13
2023-03-08T12:45:41.991Z,10.10
2023-03-08T12:48:19.656Z,10.40
2023-03-08T12:51:00.366Z,9.63
2023-03-08T12:53:36.120Z,10.17
2023-03-08T12:56:07.409Z,9.37
2023-03-08T12:58:38.021Z,9.93
2023-03-08T13:01:08.837Z,9.30
2023-03-08T13:03:43.023Z,8.67
2023-03-08T13:06:47.409Z,8.33
2023-03-08T13:09:22.128Z,7.53
2023-03-08T13:11:58.056Z,6.97
2023-03-08T13:14:28.451Z,7.23
2023-03-08T13:16:56.460Z,7.33
2023-03-08T13:19:30.057Z,5.83
2023-03-08T13:22:06.918Z,7.07
2023-03-08T13:24:42.529Z,5.73
2023-03-08T13:27:22.563Z,5.80
2023-03-08T13:29:50.438Z,6.13
2023-03-08T13:32:20.743Z,5.57
2023-03-08T13:35:00.222Z,6.10
2023-03-08T13:37:30.140Z,5.80
2023-03-08T13:39:59.711Z,5.00
2023-03-08T13:42:29.278Z,3.17
2023-03-08T13:45:08.738Z,2.20
2023-03-08T13:47:39.261Z,2.20
2023-03-08T13:50:09.824Z,1.90
2023-03-08T13:52:39.148Z,2.57
2023-03-08T13:55:13.994Z,2.20
2023-03-08T13:57:42.712Z,2.53
2023-03-08T14:00:29.295Z,2.10
2023-03-08T14:02:58.418Z,1.37
2023-03-08T14:05:29.257Z,1.20
2023-03-08T14:08:03.034Z,1.20
2023-03-08T14:10:36.842Z,1.20
2023-03-08T14:13:05.853Z,1.17
2023-03-08T14:15:39.315Z,1.10
2023-03-08T14:18:09.460Z,1.07
2023-03-08T14:20:38.573Z,0.70
2023-03-08T14:23:06.376Z,0.80
2023-03-08T14:25:34.415Z,0.80
2023-03-08T14:28:02.124Z,0.70
2023-03-08T14:30:32.334Z,0.70
2023-03-08T14:33:03.681Z,0.70
2023-03-08T14:35:34.397Z,0.73
2023-03-08T14:38:04.548Z,0.70
2023-03-08T14:40:35.425Z,0.60
2023-03-08T14:43:05.700Z,0.70
2023-03-08T14:45:36.665Z,0.70
2023-03-08T14:48:22.974Z,0.83
2023-03-08T14:50:56.771Z,0.50
2023-03-08T14:53:31.956Z,0.80
2023-03-08T14:56:01.431Z,0.70
2023-03-08T14:58:31.688Z,0.60
2023-03-08T15:01:01.912Z,0.60
2023-03-08T15:03:30.551Z,0.90
2023-03-08T15:05:58.744Z,0.73
2023-03-08T15:08:26.992Z,0.90
2023-03-08T15:10:56.313Z,0.77
2023-03-08T15:13:25.401Z,0.80
2023-03-08T15:15:53.092Z,0.50
2023-03-08T15:18:21.386Z,0.80
2023-03-08T15:20:51.206Z,1.00
2023-03-08T15:23:21.768Z,0.90
2023-03-08T15:25:49.553Z,0.93
2023-03-08T15:28:21.032Z,1.80
2023-03-08T15:30:49.015Z,1.03
2023-03-08T15:33:16.702Z,1.20
2023-03-08T15:35:44.402Z,1.30
2023-03-08T15:38:14.078Z,1.47
2023-03-08T15:40:42.701Z,1.80
2023-03-08T15:43:11.439Z,2.17
2023-03-08T15:45:40.878Z,2.00
2023-03-08T15:48:13.107Z,1.93
2023-03-08T15:50:40.964Z,2.13
2023-03-08T15:53:09.240Z,2.10
2023-03-08T15:55:38.850Z,2.37
2023-03-08T15:58:08.345Z,1.43
2023-03-08T16:00:36.869Z,1.30
2023-03-08T16:03:08.525Z,1.43
2023-03-08T16:05:36.184Z,1.50
2023-03-08T16:08:04.846Z,1.47
2023-03-08T16:10:40.253Z,1.30
2023-03-08T16:13:08.736Z,1.17
2023-03-08T16:15:39.878Z,1.03
2023-03-08T16:18:08.977Z,1.43
2023-03-08T16:20:37.009Z,1.20
2023-03-08T16:23:12.712Z,1.40
2023-03-08T16:25:43.095Z,1.73
2023-03-08T16:28:11.443Z,1.27
2023-03-08T16:30:41.982Z,0.93
2023-03-08T16:33:10.964Z,1.40
2023-03-08T16:35:38.812Z,1.00
2023-03-08T16:38:06.473Z,1.17
2023-03-08T16:40:34.114Z,1.10
2023-03-08T16:43:01.771Z,0.97
2023-03-08T16:45:29.639Z,0.90
2023-03-08T16:47:57.366Z,1.20
2023-03-08T16:50:27.364Z,0.90
2023-03-08T16:52:55.857Z,0.87
2023-03-08T16:55:24.207Z,0.63
2023-03-08T16:57:51.867Z,0.70
2023-03-08T17:00:20.661Z,0.90
2023-03-08T17:02:48.450Z,1.20
2023-03-08T17:05:16.182Z,0.80
2023-03-08T17:07:47.840Z,0.87
2023-03-08T17:10:15.591Z,0.90
2023-03-08T17:12:43.275Z,0.80
2023-03-08T17:15:12.034Z,1.00
2023-03-08T17:17:39.803Z,0.70
2023-03-08T17:20:08.885Z,1.07
2023-03-08T17:22:36.709Z,1.00
2023-03-08T17:25:06.530Z,1.60
2023-03-08T17:27:34.399Z,1.00
2023-03-08T17:30:03.710Z,1.40
2023-03-08T17:32:32.263Z,3.87
2023-03-08T17:34:59.958Z,1.47
2023-03-08T17:37:27.713Z,1.00
2023-03-08T17:39:55.412Z,0.60
2023-03-08T17:42:24.806Z,0.67
2023-03-08T17:44:52.539Z,0.73
2023-03-08T17:47:20.199Z,1.00
2023-03-08T17:49:48.071Z,0.93
2023-03-08T17:52:15.901Z,0.97
2023-03-08T17:54:43.826Z,1.13
2023-03-08T17:57:11.616Z,0.87
2023-03-08T17:59:40.679Z,0.97
2023-03-08T18:02:08.467Z,0.80
2023-03-08T18:04:36.275Z,0.70
2023-03-08T18:07:04.654Z,0.93
2023-03-08T18:09:32.511Z,1.00
2023-03-08T18:12:00.229Z,0.80
2023-03-08T18:14:39.219Z,0.80
2023-03-08T18:17:10.088Z,1.00
2023-03-08T18:19:37.863Z,0.93
2023-03-08T18:22:05.696Z,0.80
2023-03-08T18:24:33.999Z,1.20
2023-03-08T18:27:01.867Z,1.30
2023-03-08T18:29:29.600Z,1.70
2023-03-08T18:31:57.270Z,1.60
2023-03-08T18:34:26.570Z,1.37
2023-03-08T18:36:55.869Z,1.80
2023-03-08T18:39:23.664Z,2.00
2023-03-08T18:41:53.856Z,1.90
2023-03-08T18:44:21.556Z,2.70
2023-03-08T18:46:49.213Z,3.67
2023-03-08T18:49:17.129Z,2.93
2023-03-08T18:51:46.763Z,3.17
2023-03-08T18:54:20.673Z,3.40
2023-03-08T18:56:49.808Z,3.07
2023-03-08T18:59:17.949Z,2.13
2023-03-08T19:01:45.951Z,1.87
2023-03-08T19:04:14.469Z,1.93
2023-03-08T19:06:43.169Z,1.60
2023-03-08T19:09:14.312Z,1.77
2023-03-08T19:11:42.597Z,1.27
2023-03-08T19:14:11.806Z,1.80
2023-03-08T19:16:39.806Z,2.40
2023-03-08T19:19:09.856Z,3.07
2023-03-08T19:21:39.391Z,1.90
2023-03-08T19:24:07.497Z,1.30
2023-03-08T19:26:38.170Z,1.30
2023-03-08T19:29:09.419Z,0.97
2023-03-08T19:31:39.832Z,0.93
2023-03-08T19:34:07.815Z,0.97
2023-03-08T19:36:36.562Z,1.00
2023-03-08T19:39:05.190Z,1.53
2023-03-08T19:41:33.020Z,1.30
2023-03-08T19:44:06.798Z,1.00
2023-03-08T19:46:34.996Z,0.97
2023-03-08T19:49:02.763Z,0.53
2023-03-08T19:51:30.461Z,0.40
2023-03-08T19:53:58.117Z,0.50
2023-03-08T19:56:26.406Z,0.70
2023-03-08T19:58:55.951Z,0.70
2023-03-08T20:01:25.074Z,0.70
2023-03-08T20:03:52.913Z,0.80
2023-03-08T20:06:25.126Z,1.13
2023-03-08T20:08:55.497Z,2.10
2023-03-08T20:11:23.319Z,1.00
2023-03-08T20:13:51.437Z,1.27
2023-03-08T20:16:20.557Z,0.90
2023-03-08T20:18:50.150Z,1.40
2023-03-08T20:21:18.246Z,1.83
2023-03-08T20:23:45.938Z,1.80
2023-03-08T20:26:14.273Z,1.80
2023-03-08T20:28:41.988Z,1.90
2023-03-08T20:31:10.358Z,1.73
2023-03-08T20:33:38.381Z,1.10
2023-03-08T20:36:08.170Z,1.00
2023-03-08T20:38:35.882Z,0.90
2023-03-08T20:41:05.381Z,1.10
2023-03-08T20:43:34.163Z,1.27
2023-03-08T20:46:05.831Z,1.40
2023-03-08T20:48:34.525Z,1.50
2023-03-08T20:51:02.993Z,1.60
2023-03-08T20:53:33.070Z,1.00
2023-03-08T20:56:06.089Z,1.33
2023-03-08T20:58:34.092Z,1.27
2023-03-08T21:01:02.060Z,1.10
2023-03-08T21:03:29.827Z,1.30
2023-03-08T21:05:57.496Z,1.20
2023-03-08T21:08:25.221Z,1.03
2023-03-08T21:10:58.129Z,1.20
2023-03-08T21:13:25.898Z,1.40
2023-03-08T21:16:01.341Z,1.40
2023-03-08T21:18:29.103Z,1.87
2023-03-08T21:20:56.859Z,1.67
2023-03-08T21:23:24.818Z,1.73
2023-03-08T21:25:54.501Z,1.87
2023-03-08T21:28:22.487Z,1.40
2023-03-08T21:30:50.275Z,1.50
2023-03-08T21:33:17.899Z,1.63
2023-03-08T21:35:45.765Z,1.63
2023-03-08T21:38:13.454Z,1.77
2023-03-08T21:40:42.723Z,3.33
2023-03-08T21:43:11.806Z,9.30
2023-03-08T21:45:40.566Z,3.40
2023-03-08T21:48:09.109Z,2.60
2023-03-08T21:50:39.765Z,2.67
2023-03-08T21:53:07.811Z,3.93
2023-03-08T21:55:39.263Z,3.97
2023-03-08T21:58:07.402Z,3.30
2023-03-08T22:00:36.553Z,3.97
2023-03-08T22:03:04.259Z,3.47
2023-03-08T22:05:32.690Z,3.30
2023-03-08T22:08:00.411Z,3.80
2023-03-08T22:10:28.065Z,3.70
2023-03-08T22:12:55.758Z,4.00
2023-03-08T22:15:23.428Z,3.93
2023-03-08T22:17:52.904Z,3.50
2023-03-08T22:20:21.116Z,3.97
2023-03-08T22:22:48.892Z,3.30
2023-03-08T22:25:16.679Z,3.70
2023-03-08T22:27:44.347Z,3.63
2023-03-08T22:30:13.129Z,3.43
2023-03-08T22:32:41.962Z,3.53
2023-03-08T22:35:13.256Z,3.43
2023-03-08T22:37:41.869Z,3.37
2023-03-08T22:40:12.933Z,3.37
2023-03-08T22:42:41.171Z,4.30
2023-03-08T22:45:09.919Z,3.70
2023-03-08T22:47:37.720Z,4.07
2023-03-08T22:50:06.192Z,3.33
2023-03-08T22:52:35.600Z,2.67
2023-03-08T22:55:04.457Z,3.10
2023-03-08T22:57:32.581Z,3.63
2023-03-08T23:00:00.227Z,2.37
2023-03-08T23:02:28.523Z,1.80
2023-03-08T23:04:57.704Z,1.53
2023-03-08T23:07:25.600Z,1.20
2023-03-08T23:09:54.883Z,1.23
2023-03-08T23:12:22.645Z,1.20
2023-03-08T23:14:50.328Z,1.20
2023-03-08T23:17:18.666Z,1.13
2023-03-08T23:19:46.368Z,1.30
2023-03-08T23:22:14.067Z,1.30
2023-03-08T23:24:41.739Z,1.30
2023-03-08T23:27:10.999Z,1.70
2023-03-08T23:29:39.152Z,1.50
2023-03-08T23:32:07.571Z,1.43
2023-03-08T23:34:35.494Z,1.50
2023-03-08T23:37:04.184Z,1.80
2023-03-08T23:39:32.158Z,1.30
2023-03-08T23:41:59.807Z,1.40
2023-03-08T23:44:28.931Z,1.23
2023-03-08T23:46:56.676Z,1.20
2023-03-08T23:49:24.357Z,1.30
2023-03-08T23:51:52.019Z,1.27
2023-03-08T23:54:19.689Z,1.30
2023-03-08T23:56:47.436Z,1.20
2023-03-08T23:59:18.492Z,1.53
